createdAt,value
2023-01-19T00:00:44.508Z,95.60
2023-01-19T00:03:16.087Z,95.70
2023-01-19T00:05:45.136Z,95.70
2023-01-19T00:08:16.415Z,95.80
2023-01-19T00:10:46.447Z,95.80
2023-01-19T00:13:16.901Z,95.80
2023-01-19T00:15:45.148Z,95.80
2023-01-19T00:18:13.375Z,95.90
2023-01-19T00:20:41.860Z,95.90
2023-01-19T00:23:10.074Z,95.80
2023-01-19T00:25:42.505Z,95.80
2023-01-19T00:28:11.332Z,95.80
2023-01-19T00:30:41.488Z,95.80
2023-01-19T00:33:10.205Z,95.80
2023-01-19T00:35:38.471Z,95.70
2023-01-19T00:38:06.694Z,95.70
2023-01-19T00:40:35.100Z,95.50
2023-01-19T00:43:03.407Z,95.40
2023-01-19T00:45:32.299Z,95.60
2023-01-19T00:48:02.206Z,95.50
2023-01-19T00:50:32.130Z,95.40
2023-01-19T00:53:01.320Z,95.30
2023-01-19T00:55:30.644Z,95.30
2023-01-19T00:57:59.144Z,95.30
2023-01-19T01:00:27.383Z,95.20
2023-01-19T01:02:55.998Z,95.20
2023-01-19T01:05:25.720Z,95.30
2023-01-19T01:07:53.930Z,95.30
2023-01-19T01:10:23.865Z,95.10
2023-01-19T01:12:55.520Z,95.20
2023-01-19T01:15:27.529Z,95.30
2023-01-19T01:17:55.896Z,95.20
2023-01-19T01:20:28.049Z,95.20
2023-01-19T01:22:57.569Z,95.20
2023-01-19T01:25:27.314Z,95.10
2023-01-19T01:27:55.710Z,95.00
2023-01-19T01:30:24.228Z,95.00
2023-01-19T01:32:52.418Z,95.20
2023-01-19T01:35:20.809Z,95.10
2023-01-19T01:37:50.445Z,94.90
2023-01-19T01:40:19.942Z,94.80
2023-01-19T01:42:48.257Z,94.80
2023-01-19T01:45:30.525Z,95.10
2023-01-19T01:48:01.449Z,95.00
2023-01-19T01:50:31.621Z,94.80
2023-01-19T01:53:07.399Z,94.80
2023-01-19T01:55:38.121Z,94.80
2023-01-19T01:58:07.122Z,94.80
2023-01-19T02:00:49.280Z,95.10
2023-01-19T02:03:17.716Z,94.70
2023-01-19T02:05:46.875Z,94.60
2023-01-19T02:08:36.150Z,94.60
2023-01-19T02:11:22.252Z,94.60
2023-01-19T02:13:50.875Z,94.60
2023-01-19T02:16:19.142Z,94.50
2023-01-19T02:18:47.502Z,94.40
2023-01-19T02:21:20.207Z,94.40
2023-01-19T02:23:51.774Z,94.30
2023-01-19T02:26:22.253Z,94.20
2023-01-19T02:28:53.076Z,94.30
2023-01-19T02:31:21.317Z,94.60
2023-01-19T02:33:51.701Z,94.40
2023-01-19T02:36:23.392Z,94.30
2023-01-19T02:38:53.514Z,94.20
2023-01-19T02:41:23.534Z,94.40
2023-01-19T02:43:52.166Z,94.40
2023-01-19T02:46:20.543Z,94.40
2023-01-19T02:48:48.759Z,94.50
2023-01-19T02:51:18.840Z,94.40
2023-01-19T02:54:13.379Z,94.40
2023-01-19T02:56:51.571Z,94.30
2023-01-19T02:59:28.517Z,94.20
2023-01-19T03:02:19.375Z,94.50
2023-01-19T03:04:59.520Z,94.20
2023-01-19T03:07:34.614Z,94.20
2023-01-19T03:10:09.442Z,94.30
2023-01-19T03:12:41.755Z,94.40
2023-01-19T03:15:14.785Z,94.30
2023-01-19T03:17:44.575Z,94.30
2023-01-19T03:20:14.537Z,94.50
2023-01-19T03:22:43.255Z,94.50
2023-01-19T03:25:15.266Z,94.40
2023-01-19T03:27:44.296Z,94.50
2023-01-19T03:30:16.181Z,94.60
2023-01-19T03:32:47.089Z,94.50
2023-01-19T03:35:17.069Z,94.30
2023-01-19T03:37:47.419Z,94.40
2023-01-19T03:40:17.815Z,94.50
2023-01-19T03:42:46.364Z,94.60
2023-01-19T03:45:15.425Z,94.60
2023-01-19T03:47:43.698Z,94.50
2023-01-19T03:50:18.153Z,94.50
2023-01-19T03:52:46.305Z,94.60
2023-01-19T03:55:14.743Z,94.60
2023-01-19T03:57:44.957Z,94.70
2023-01-19T04:00:14.632Z,94.70
2023-01-19T04:02:42.875Z,94.60
2023-01-19T04:05:11.255Z,94.70
2023-01-19T04:07:39.828Z,94.80
2023-01-19T04:10:12.611Z,94.60
2023-01-19T04:12:41.012Z,94.70
2023-01-19T04:15:10.843Z,94.60
2023-01-19T04:17:39.337Z,94.60
2023-01-19T04:20:08.297Z,94.50
2023-01-19T04:22:36.548Z,94.40
2023-01-19T04:25:05.051Z,94.50
2023-01-19T04:27:33.289Z,94.50
2023-01-19T04:30:01.547Z,94.70
2023-01-19T04:32:31.245Z,94.70
2023-01-19T04:35:00.381Z,94.60
2023-01-19T04:37:28.939Z,94.50
2023-01-19T04:39:57.163Z,94.50
2023-01-19T04:42:25.430Z,94.50
2023-01-19T04:44:53.739Z,94.70
2023-01-19T04:47:21.983Z,94.80
2023-01-19T04:49:51.642Z,94.70
2023-01-19T04:52:20.405Z,94.80
2023-01-19T04:54:48.973Z,94.70
2023-01-19T04:57:17.179Z,94.90
2023-01-19T04:59:45.452Z,95.00
2023-01-19T05:02:13.763Z,95.10
2023-01-19T05:04:41.932Z,95.10
2023-01-19T05:07:11.681Z,95.00
2023-01-19T05:09:39.886Z,95.10
2023-01-19T05:12:08.567Z,95.10
2023-01-19T05:14:36.744Z,95.20
2023-01-19T05:17:05.029Z,95.20
2023-01-19T05:19:33.242Z,95.20
2023-01-19T05:22:02.952Z,95.30
2023-01-19T05:24:32.868Z,95.10
2023-01-19T05:27:01.111Z,95.20
2023-01-19T05:29:29.272Z,95.00
2023-01-19T05:31:58.194Z,95.10
2023-01-19T05:34:26.484Z,95.10
2023-01-19T05:36:54.871Z,95.10
2023-01-19T05:39:23.054Z,95.00
2023-01-19T05:41:52.720Z,95.00
2023-01-19T05:44:20.981Z,94.80
2023-01-19T05:46:49.217Z,94.70
2023-01-19T05:49:17.539Z,94.80
2023-01-19T05:51:46.467Z,94.90
2023-01-19T05:54:16.120Z,94.80
2023-01-19T05:56:44.676Z,95.00
2023-01-19T05:59:15.338Z,94.90
2023-01-19T06:01:43.645Z,94.90
2023-01-19T06:04:11.908Z,95.00
2023-01-19T06:06:40.239Z,95.10
2023-01-19T06:09:08.529Z,95.20
2023-01-19T06:11:36.719Z,95.20
2023-01-19T06:14:05.231Z,95.20
2023-01-19T06:16:34.903Z,95.30
2023-01-19T06:19:03.123Z,95.20
2023-01-19T06:21:31.579Z,95.10
2023-01-19T06:23:59.902Z,95.20
2023-01-19T06:26:28.098Z,95.40
2023-01-19T06:28:56.668Z,95.40
2023-01-19T06:31:24.869Z,95.40
2023-01-19T06:33:54.531Z,95.40
2023-01-19T06:36:22.717Z,95.30
2023-01-19T06:38:51.087Z,95.40
2023-01-19T06:41:19.339Z,95.40
2023-01-19T06:43:47.613Z,95.40
2023-01-19T06:46:15.872Z,95.50
2023-01-19T06:48:44.190Z,95.70
2023-01-19T06:51:14.004Z,95.90
2023-01-19T06:53:42.157Z,96.20
2023-01-19T06:56:10.736Z,96.50
2023-01-19T06:58:39.653Z,96.50
2023-01-19T07:01:08.975Z,96.80
2023-01-19T07:03:38.569Z,96.50
2023-01-19T07:06:07.799Z,96.50
2023-01-19T07:08:38.378Z,96.50
2023-01-19T07:11:24.755Z,96.60
2023-01-19T07:13:56.812Z,96.60
2023-01-19T07:16:25.326Z,96.60
2023-01-19T07:18:53.724Z,96.60
2023-01-19T07:21:21.961Z,96.70
2023-01-19T07:23:52.969Z,96.70
2023-01-19T07:26:22.188Z,96.90
2023-01-19T07:28:50.614Z,96.90
2023-01-19T07:31:19.269Z,96.90
2023-01-19T07:33:47.826Z,97.00
2023-01-19T07:36:16.331Z,97.00
2023-01-19T07:38:44.638Z,96.90
2023-01-19T07:41:14.771Z,96.90
2023-01-19T07:43:43.034Z,96.80
2023-01-19T07:46:11.324Z,96.70
2023-01-19T07:48:39.604Z,96.50
2023-01-19T07:51:12.949Z,96.70
2023-01-19T07:53:42.005Z,96.40
2023-01-19T07:56:10.598Z,96.40
2023-01-19T07:58:40.561Z,96.50
2023-01-19T08:01:09.952Z,96.30
2023-01-19T08:03:38.487Z,96.00
2023-01-19T08:06:07.789Z,95.70
2023-01-19T08:08:36.081Z,95.40
2023-01-19T08:11:04.349Z,95.10
2023-01-19T08:13:32.609Z,94.90
2023-01-19T08:16:02.310Z,94.80
2023-01-19T08:18:30.612Z,95.00
2023-01-19T08:20:59.844Z,95.10
2023-01-19T08:23:28.977Z,95.00
2023-01-19T08:25:57.342Z,94.90
2023-01-19T08:28:25.940Z,95.00
2023-01-19T08:30:55.520Z,95.20
2023-01-19T08:33:26.172Z,95.10
2023-01-19T08:35:55.208Z,95.20
2023-01-19T08:38:24.851Z,95.10
2023-01-19T08:40:53.376Z,94.80
2023-01-19T08:43:21.642Z,94.50
2023-01-19T08:45:52.898Z,94.50
2023-01-19T08:48:23.405Z,94.50
2023-01-19T08:50:53.844Z,94.50
2023-01-19T08:53:23.706Z,94.50
2023-01-19T08:55:55.707Z,94.60
2023-01-19T08:58:23.988Z,94.50
2023-01-19T09:00:53.001Z,94.40
2023-01-19T09:03:22.716Z,94.40
2023-01-19T09:05:52.462Z,94.60
2023-01-19T09:08:20.712Z,94.80
2023-01-19T09:10:50.723Z,94.80
2023-01-19T09:13:20.015Z,94.80
2023-01-19T09:15:48.558Z,95.00
2023-01-19T09:18:18.186Z,95.20
2023-01-19T09:20:47.701Z,95.20
2023-01-19T09:23:18.742Z,95.20
2023-01-19T09:25:47.988Z,95.10
2023-01-19T09:28:18.077Z,95.20
2023-01-19T09:30:46.487Z,95.40
2023-01-19T09:33:16.594Z,95.30
2023-01-19T09:35:46.690Z,95.30
2023-01-19T09:38:16.890Z,95.40
2023-01-19T09:40:50.711Z,95.40
2023-01-19T09:43:26.261Z,95.50
2023-01-19T09:45:56.997Z,95.60
2023-01-19T09:48:34.252Z,95.60
2023-01-19T09:51:05.473Z,95.60
2023-01-19T09:53:46.619Z,95.50
2023-01-19T09:56:18.169Z,95.50
2023-01-19T09:58:46.748Z,95.30
2023-01-19T10:01:30.409Z,95.30
2023-01-19T10:04:21.665Z,95.20
2023-01-19T10:06:50.139Z,94.90
2023-01-19T10:09:22.393Z,94.70
2023-01-19T10:11:56.741Z,94.80
2023-01-19T10:14:29.779Z,94.60
2023-01-19T10:17:05.540Z,93.80
2023-01-19T10:19:38.162Z,93.30
2023-01-19T10:22:19.923Z,93.00
2023-01-19T10:24:49.879Z,92.30
2023-01-19T10:27:22.102Z,92.10
2023-01-19T10:29:50.735Z,91.90
2023-01-19T10:32:21.375Z,91.90
2023-01-19T10:34:50.444Z,91.80
2023-01-19T10:37:26.690Z,91.50
2023-01-19T10:39:56.734Z,90.70
2023-01-19T10:42:29.547Z,90.60
2023-01-19T10:44:57.748Z,90.10
2023-01-19T10:47:32.528Z,90.10
2023-01-19T10:50:00.721Z,89.60
2023-01-19T10:52:32.139Z,89.30
2023-01-19T10:55:01.341Z,88.80
2023-01-19T10:57:34.532Z,86.90
2023-01-19T11:00:02.822Z,86.20
2023-01-19T11:02:32.705Z,85.60
2023-01-19T11:05:04.020Z,83.90
2023-01-19T11:07:33.746Z,84.90
2023-01-19T11:10:22.002Z,84.60
2023-01-19T11:12:58.797Z,84.20
2023-01-19T11:15:31.416Z,83.90
2023-01-19T11:18:00.087Z,85.00
2023-01-19T11:20:30.758Z,82.80
2023-01-19T11:23:06.396Z,82.70
2023-01-19T11:25:36.126Z,84.70
2023-01-19T11:28:06.270Z,84.60
2023-01-19T11:30:35.983Z,84.50
2023-01-19T11:33:06.061Z,85.30
2023-01-19T11:35:39.946Z,85.20
2023-01-19T11:38:19.838Z,85.70
2023-01-19T11:40:54.568Z,85.40
2023-01-19T11:43:26.843Z,85.70
2023-01-19T11:45:57.101Z,86.60
2023-01-19T11:48:30.037Z,86.60
2023-01-19T11:51:00.799Z,87.00
2023-01-19T11:53:34.286Z,87.50
2023-01-19T11:56:05.028Z,88.60
2023-01-19T11:58:39.053Z,88.70
2023-01-19T12:01:12.450Z,88.90
2023-01-19T12:03:42.588Z,89.50
2023-01-19T12:06:13.475Z,89.40
2023-01-19T12:08:44.737Z,88.70
2023-01-19T12:11:17.210Z,88.90
2023-01-19T12:13:47.736Z,89.10
2023-01-19T12:16:22.087Z,89.10
2023-01-19T12:18:53.791Z,89.50
2023-01-19T12:21:22.926Z,89.80
2023-01-19T12:23:56.975Z,89.70
2023-01-19T12:26:32.073Z,90.00
2023-01-19T12:29:05.222Z,90.30
2023-01-19T12:31:34.009Z,90.10
2023-01-19T12:34:31.346Z,90.20
2023-01-19T12:37:03.878Z,90.60
2023-01-19T12:39:33.356Z,90.40
2023-01-19T12:42:07.978Z,90.20
2023-01-19T12:44:37.770Z,90.40
2023-01-19T12:47:21.223Z,90.40
2023-01-19T12:49:51.150Z,90.70
2023-01-19T12:52:41.248Z,90.80
2023-01-19T12:55:20.924Z,90.80
2023-01-19T12:57:53.694Z,90.70
2023-01-19T13:00:38.025Z,90.80
2023-01-19T13:03:37.028Z,90.90
2023-01-19T13:06:05.403Z,90.80
2023-01-19T13:08:59.693Z,90.90
2023-01-19T13:11:32.634Z,91.00
2023-01-19T13:14:34.975Z,91.20
2023-01-19T13:17:20.549Z,91.60
2023-01-19T13:19:53.382Z,91.70
2023-01-19T13:23:04.806Z,91.90
2023-01-19T13:25:35.953Z,92.00
2023-01-19T13:28:09.728Z,91.90
2023-01-19T13:30:41.038Z,91.90
2023-01-19T13:33:24.280Z,92.00
2023-01-19T13:35:58.741Z,92.30
2023-01-19T13:38:28.379Z,92.30
2023-01-19T13:40:57.529Z,92.40
2023-01-19T13:43:32.247Z,92.50
2023-01-19T13:46:00.996Z,92.60
2023-01-19T13:48:32.413Z,92.70
2023-01-19T13:51:04.079Z,92.90
2023-01-19T13:53:32.878Z,92.80
2023-01-19T13:56:08.845Z,93.00
2023-01-19T13:58:37.370Z,93.20
2023-01-19T14:01:05.605Z,92.90
2023-01-19T14:03:35.357Z,92.90
2023-01-19T14:06:03.687Z,93.00
2023-01-19T14:08:32.991Z,93.00
2023-01-19T14:11:02.995Z,93.10
2023-01-19T14:13:32.801Z,93.00
2023-01-19T14:16:05.534Z,93.10
2023-01-19T14:18:36.203Z,93.40
2023-01-19T14:21:07.934Z,93.50
2023-01-19T14:23:45.523Z,93.60
2023-01-19T14:26:43.242Z,93.60
2023-01-19T14:29:29.036Z,93.70
2023-01-19T14:32:22.330Z,93.70
2023-01-19T14:34:53.930Z,94.00
2023-01-19T14:37:25.772Z,94.50
2023-01-19T14:39:57.415Z,94.30
2023-01-19T14:42:31.499Z,94.50
2023-01-19T14:45:01.684Z,95.10
2023-01-19T14:47:36.856Z,95.50
2023-01-19T14:50:19.919Z,95.70
2023-01-19T14:52:52.822Z,96.00
2023-01-19T14:55:22.882Z,96.10
2023-01-19T14:57:51.179Z,96.30
2023-01-19T15:00:20.834Z,96.50
2023-01-19T15:02:49.109Z,96.70
2023-01-19T15:05:18.782Z,96.80
2023-01-19T15:07:47.915Z,96.80
2023-01-19T15:10:20.748Z,96.90
2023-01-19T15:12:49.441Z,96.90
2023-01-19T15:15:19.533Z,97.10
2023-01-19T15:17:47.901Z,97.00
2023-01-19T15:20:19.806Z,97.00
2023-01-19T15:22:48.242Z,96.80
2023-01-19T15:25:17.406Z,96.80
2023-01-19T15:27:46.063Z,96.70
2023-01-19T15:30:17.098Z,96.60
2023-01-19T15:32:45.348Z,96.50
2023-01-19T15:35:15.866Z,96.50
2023-01-19T15:37:45.581Z,96.60
2023-01-19T15:40:14.521Z,96.60
2023-01-19T15:42:43.290Z,96.80
2023-01-19T15:45:36.703Z,96.90
2023-01-19T15:48:06.692Z,96.90
2023-01-19T15:50:36.833Z,96.90
2023-01-19T15:53:06.518Z,96.90
2023-01-19T15:55:34.976Z,97.00
2023-01-19T15:58:03.160Z,97.00
2023-01-19T16:00:32.412Z,97.00
2023-01-19T16:03:01.825Z,96.90
2023-01-19T16:05:42.652Z,97.00
2023-01-19T16:08:12.996Z,97.10
2023-01-19T16:10:41.925Z,97.10
2023-01-19T16:13:11.094Z,97.20
2023-01-19T16:15:40.257Z,97.20
2023-01-19T16:18:08.538Z,97.20
2023-01-19T16:20:36.899Z,97.30
2023-01-19T16:23:20.349Z,97.30
2023-01-19T16:25:58.706Z,97.40
2023-01-19T16:28:27.827Z,97.40
2023-01-19T16:30:56.097Z,97.40
2023-01-19T16:33:24.378Z,97.50
2023-01-19T16:35:53.031Z,97.50
2023-01-19T16:38:24.722Z,97.60
2023-01-19T16:40:52.961Z,97.70
2023-01-19T16:43:22.609Z,97.80
2023-01-19T16:45:59.117Z,97.80
2023-01-19T16:48:27.651Z,97.80
2023-01-19T16:51:00.407Z,97.90
2023-01-19T16:53:29.197Z,98.00
2023-01-19T16:55:57.486Z,98.10
2023-01-19T16:58:27.057Z,98.30
2023-01-19T17:00:55.301Z,98.40
2023-01-19T17:03:23.547Z,98.50
2023-01-19T17:05:52.033Z,98.70
2023-01-19T17:08:20.873Z,98.80
2023-01-19T17:10:49.257Z,98.80
2023-01-19T17:13:17.441Z,98.90
2023-01-19T17:15:46.976Z,99.00
2023-01-19T17:18:15.225Z,99.10
2023-01-19T17:20:43.471Z,99.20
2023-01-19T17:23:11.668Z,99.20
2023-01-19T17:25:39.826Z,99.30
2023-01-19T17:28:08.104Z,99.40
2023-01-19T17:30:36.318Z,99.40
2023-01-19T17:33:06.019Z,99.50
2023-01-19T17:35:35.604Z,99.40
2023-01-19T17:38:03.884Z,99.60
2023-01-19T17:40:32.165Z,99.60
2023-01-19T17:43:00.643Z,99.70
2023-01-19T17:45:28.934Z,99.80
2023-01-19T17:47:57.162Z,99.90
2023-01-19T17:50:26.876Z,99.90
2023-01-19T17:52:55.080Z,99.90
2023-01-19T17:55:23.327Z,99.90
2023-01-19T17:57:51.580Z,99.90
2023-01-19T18:00:20.619Z,99.90
2023-01-19T18:02:50.239Z,99.90
2023-01-19T18:05:18.611Z,99.90
2023-01-19T18:07:48.515Z,99.90
2023-01-19T18:10:17.447Z,99.90
2023-01-19T18:12:45.824Z,99.90
2023-01-19T18:15:16.743Z,99.90
2023-01-19T18:17:45.278Z,99.90
2023-01-19T18:20:14.026Z,99.90
2023-01-19T18:22:42.509Z,99.90
2023-01-19T18:25:12.341Z,99.90
2023-01-19T18:27:40.549Z,99.90
2023-01-19T18:30:10.231Z,99.90
2023-01-19T18:32:38.555Z,99.90
2023-01-19T18:35:07.955Z,99.90
2023-01-19T18:37:36.239Z,99.90
2023-01-19T18:40:04.733Z,99.90
2023-01-19T18:42:35.009Z,99.90
2023-01-19T18:45:03.285Z,99.90
2023-01-19T18:47:33.505Z,99.90
2023-01-19T18:50:01.733Z,99.90
2023-01-19T18:52:32.301Z,99.90
2023-01-19T18:55:00.852Z,99.90
2023-01-19T18:57:29.159Z,99.90
2023-01-19T18:59:58.810Z,99.90
2023-01-19T19:02:27.138Z,99.90
2023-01-19T19:04:55.365Z,99.90
2023-01-19T19:07:23.711Z,99.90
2023-01-19T19:09:51.959Z,99.90
2023-01-19T19:12:20.143Z,99.90
2023-01-19T19:14:48.363Z,99.90
2023-01-19T19:17:18.143Z,99.90
2023-01-19T19:19:46.346Z,99.90
2023-01-19T19:22:14.629Z,99.90
2023-01-19T19:24:42.827Z,99.90
2023-01-19T19:27:14.284Z,99.90
2023-01-19T19:29:43.998Z,99.90
2023-01-19T19:32:12.318Z,99.90
2023-01-19T19:34:42.056Z,99.90
2023-01-19T19:37:10.318Z,99.90
2023-01-19T19:39:38.543Z,99.90
2023-01-19T19:42:06.791Z,99.90
2023-01-19T19:44:35.068Z,99.90
2023-01-19T19:47:03.228Z,99.90
2023-01-19T19:49:31.461Z,99.90
2023-01-19T19:52:01.105Z,99.90
2023-01-19T19:54:29.325Z,99.90
2023-01-19T19:56:57.606Z,99.90
2023-01-19T19:59:25.886Z,99.90
2023-01-19T20:01:54.803Z,99.90
2023-01-19T20:04:25.331Z,99.90
2023-01-19T20:06:53.641Z,99.90
2023-01-19T20:09:23.743Z,99.90
2023-01-19T20:11:52.380Z,99.90
2023-01-19T20:14:22.470Z,99.90
2023-01-19T20:16:50.781Z,99.90
2023-01-19T20:19:19.070Z,99.90
2023-01-19T20:21:47.354Z,99.90
2023-01-19T20:24:17.138Z,99.90
2023-01-19T20:26:49.681Z,99.90
2023-01-19T20:29:18.306Z,99.90
2023-01-19T20:31:48.306Z,99.90
2023-01-19T20:34:18.649Z,99.90
2023-01-19T20:36:49.787Z,99.90
2023-01-19T20:39:18.571Z,99.90
2023-01-19T20:41:51.082Z,99.90
2023-01-19T20:44:20.814Z,99.90
2023-01-19T20:46:49.678Z,99.90
2023-01-19T20:49:18.194Z,99.90
2023-01-19T20:51:47.012Z,99.90
2023-01-19T20:54:17.054Z,99.90
2023-01-19T20:56:45.449Z,99.90
2023-01-19T20:59:15.077Z,99.90
2023-01-19T21:01:43.870Z,99.90
2023-01-19T21:04:12.735Z,99.90
2023-01-19T21:06:41.223Z,99.90
2023-01-19T21:09:09.703Z,99.90
2023-01-19T21:11:39.283Z,99.90
2023-01-19T21:14:08.427Z,99.90
2023-01-19T21:16:38.492Z,99.90
2023-01-19T21:19:06.834Z,99.90
2023-01-19T21:21:34.999Z,99.90
2023-01-19T21:24:04.485Z,99.90
2023-01-19T21:26:33.594Z,99.90
2023-01-19T21:29:02.899Z,99.90
2023-01-19T21:31:31.372Z,99.90
2023-01-19T21:34:01.045Z,99.90
2023-01-19T21:36:29.356Z,99.90
2023-01-19T21:39:00.771Z,99.90
2023-01-19T21:41:29.973Z,99.90
2023-01-19T21:43:58.606Z,99.90
2023-01-19T21:46:29.365Z,99.90
2023-01-19T21:48:58.274Z,99.90
2023-01-19T21:51:27.969Z,99.90
2023-01-19T21:53:59.658Z,99.90
2023-01-19T21:56:28.376Z,99.90
2023-01-19T21:58:57.430Z,99.90
2023-01-19T22:01:26.093Z,99.90
2023-01-19T22:03:55.207Z,99.90
2023-01-19T22:06:23.809Z,99.90
2023-01-19T22:08:53.722Z,99.90
2023-01-19T22:11:23.537Z,99.90
2023-01-19T22:13:51.863Z,99.90
2023-01-19T22:16:22.625Z,99.90
2023-01-19T22:18:54.025Z,99.90
2023-01-19T22:21:23.959Z,99.90
2023-01-19T22:23:55.214Z,99.90
2023-01-19T22:26:23.791Z,99.90
2023-01-19T22:28:54.744Z,99.90
2023-01-19T22:31:24.476Z,99.90
2023-01-19T22:33:53.018Z,99.90
2023-01-19T22:36:22.533Z,99.90
2023-01-19T22:38:52.519Z,99.90
2023-01-19T22:41:23.591Z,99.90
2023-01-19T22:43:54.000Z,99.90
2023-01-19T22:46:24.150Z,99.90
2023-01-19T22:48:52.836Z,99.90
2023-01-19T22:51:22.089Z,99.90
2023-01-19T22:53:50.385Z,99.90
2023-01-19T22:56:19.785Z,99.90
2023-01-19T22:58:50.800Z,99.90
2023-01-19T23:01:20.449Z,99.90
2023-01-19T23:03:49.024Z,99.90
2023-01-19T23:06:19.022Z,99.90
2023-01-19T23:08:47.321Z,99.90
2023-01-19T23:11:17.129Z,99.90
2023-01-19T23:13:45.871Z,99.90
2023-01-19T23:16:15.844Z,99.90
2023-01-19T23:18:44.897Z,99.90
2023-01-19T23:21:14.506Z,99.90
2023-01-19T23:23:43.818Z,99.90
2023-01-19T23:26:13.504Z,99.90
2023-01-19T23:28:42.198Z,99.90
2023-01-19T23:31:22.251Z,99.90
2023-01-19T23:33:51.144Z,99.90
2023-01-19T23:36:20.209Z,99.90
2023-01-19T23:38:52.433Z,99.90
2023-01-19T23:41:21.413Z,99.90
2023-01-19T23:43:49.894Z,99.90
2023-01-19T23:46:20.469Z,99.90
2023-01-19T23:48:48.788Z,99.90
2023-01-19T23:51:18.872Z,99.90
2023-01-19T23:53:47.453Z,99.90
2023-01-19T23:56:18.248Z,99.90
2023-01-19T23:58:47.114Z,99.90
